createdAt,value
2019-01-19T00:00:02.054Z,1003.18
2019-01-19T00:05:01.399Z,1003.14
2019-01-19T00:15:01.916Z,1003.04
2019-01-19T00:20:02.181Z,1003
2019-01-19T00:25:01.475Z,1003
2019-01-19T00:30:01.771Z,1003.02
2019-01-19T00:35:02.089Z,1002.9
2019-01-19T00:40:01.407Z,1002.86
2019-01-19T00:45:01.705Z,1002.94
2019-01-19T00:50:02.009Z,1002.93
2019-01-19T00:55:01.303Z,1002.86
2019-01-19T01:00:01.620Z,1002.91
2019-01-19T01:05:01.923Z,1002.89
2019-01-19T01:10:02.160Z,1002.87
2019-01-19T01:15:01.457Z,1002.87
2019-01-19T01:20:01.778Z,1002.88
2019-01-19T01:25:02.021Z,1002.88
2019-01-19T01:30:01.335Z,1002.87
2019-01-19T01:35:01.733Z,1002.92
2019-01-19T01:40:02.098Z,1002.91
2019-01-19T01:45:01.437Z,1002.89
2019-01-19T01:50:01.698Z,1002.86
2019-01-19T01:55:02.028Z,1002.83
2019-01-19T02:00:01.349Z,1002.75
2019-01-19T02:05:01.645Z,1002.72
2019-01-19T02:10:02.076Z,1002.68
2019-01-19T02:15:01.439Z,1002.66
2019-01-19T02:20:01.776Z,1002.65
2019-01-19T02:25:02.079Z,1002.62
2019-01-19T02:30:01.458Z,1002.55
2019-01-19T02:35:01.787Z,1002.52
2019-01-19T02:40:02.192Z,1002.49
2019-01-19T02:45:01.431Z,1002.44
2019-01-19T02:50:01.940Z,1002.4
2019-01-19T02:55:02.219Z,1002.36
2019-01-19T03:00:01.491Z,1002.33
2019-01-19T03:05:01.821Z,1002.3
2019-01-19T03:10:02.087Z,1002.32
2019-01-19T03:15:01.852Z,1002.23
2019-01-19T03:20:02.323Z,1002.25
2019-01-19T03:25:01.700Z,1002.2
2019-01-19T03:30:02.000Z,1002.1
2019-01-19T03:35:01.367Z,1002.06
2019-01-19T03:40:01.297Z,1002.04
2019-01-19T03:45:01.583Z,1001.98
2019-01-19T03:50:01.853Z,1001.98
2019-01-19T03:55:02.177Z,1001.94
2019-01-19T04:00:01.744Z,1001.94
2019-01-19T04:05:02.025Z,1001.86
2019-01-19T04:10:01.311Z,1001.83
2019-01-19T04:15:01.881Z,1001.82
2019-01-19T04:20:02.162Z,1001.76
2019-01-19T04:25:01.455Z,1001.74
2019-01-19T04:30:01.796Z,1001.74
2019-01-19T04:35:02.142Z,1001.69
2019-01-19T04:40:01.431Z,1001.59
2019-01-19T04:45:01.733Z,1001.6
2019-01-19T04:50:02.021Z,1001.63
2019-01-19T04:55:01.362Z,1001.6
2019-01-19T05:00:01.619Z,1001.66
2019-01-19T05:05:01.837Z,1001.63
2019-01-19T05:10:02.124Z,1001.56
2019-01-19T05:15:01.521Z,1001.55
2019-01-19T05:20:01.833Z,1001.53
2019-01-19T05:25:02.137Z,1001.52
2019-01-19T05:30:01.540Z,1001.49
2019-01-19T05:35:01.936Z,1001.48
2019-01-19T05:40:01.930Z,1001.42
2019-01-19T05:45:02.230Z,1001.4
2019-01-19T05:50:01.498Z,1001.39
2019-01-19T05:55:01.782Z,1001.38
2019-01-19T06:00:02.058Z,1001.36
2019-01-19T06:05:01.433Z,1001.36
2019-01-19T06:10:01.716Z,1001.34
2019-01-19T06:15:02.002Z,1001.33
2019-01-19T06:20:01.283Z,1001.32
2019-01-19T06:25:01.548Z,1001.31
2019-01-19T06:30:01.834Z,1001.34
2019-01-19T06:35:02.078Z,1001.27
2019-01-19T06:40:01.395Z,1001.3
2019-01-19T06:45:01.750Z,1001.3
2019-01-19T06:50:02.032Z,1001.27
2019-01-19T06:55:01.318Z,1001.3
2019-01-19T07:00:01.594Z,1001.24
2019-01-19T07:05:01.977Z,1001.3
2019-01-19T07:10:02.186Z,1001.29
2019-01-19T07:15:01.444Z,1001.29
2019-01-19T07:20:01.736Z,1001.31
2019-01-19T07:25:02.071Z,1001.24
2019-01-19T07:30:01.330Z,1001.26
2019-01-19T07:35:01.645Z,1001.31
2019-01-19T07:40:01.914Z,1001.34
2019-01-19T07:45:02.219Z,1001.35
2019-01-19T07:50:01.509Z,1001.36
2019-01-19T07:55:01.821Z,1001.36
2019-01-19T08:00:02.056Z,1001.39
2019-01-19T08:05:01.401Z,1001.37
2019-01-19T08:10:01.690Z,1001.41
2019-01-19T08:15:01.960Z,1001.48
2019-01-19T08:20:02.231Z,1001.46
2019-01-19T08:25:01.446Z,1001.49
2019-01-19T08:30:01.713Z,1001.49
2019-01-19T08:35:02.002Z,1001.44
2019-01-19T08:40:01.307Z,1001.39
2019-01-19T08:45:01.612Z,1001.4
2019-01-19T08:50:01.887Z,1001.44
2019-01-19T08:55:02.144Z,1001.41
2019-01-19T09:00:01.420Z,1001.48
2019-01-19T09:05:01.689Z,1001.43
2019-01-19T09:10:01.965Z,1001.43
2019-01-19T09:15:02.207Z,1001.38
2019-01-19T09:20:01.489Z,1001.32
2019-01-19T09:25:01.846Z,1001.32
2019-01-19T09:30:02.088Z,1001.34
2019-01-19T09:35:01.397Z,1001.36
2019-01-19T09:40:01.725Z,1001.33
2019-01-19T09:45:02.050Z,1001.39
2019-01-19T09:50:01.543Z,1001.47
2019-01-19T09:55:01.836Z,1001.38
2019-01-19T10:00:02.105Z,1001.36
2019-01-19T10:05:01.407Z,1001.29
2019-01-19T10:10:01.818Z,1001.24
2019-01-19T10:15:02.146Z,1001.27
2019-01-19T10:20:01.441Z,1001.21
2019-01-19T10:25:01.681Z,1001.15
2019-01-19T10:30:01.993Z,1001.07
2019-01-19T10:35:01.290Z,1001.04
2019-01-19T10:40:01.885Z,1000.95
2019-01-19T10:45:02.201Z,1000.87
2019-01-19T10:50:01.473Z,1000.84
2019-01-19T10:55:01.782Z,1000.66
2019-01-19T11:00:02.031Z,1000.64
2019-01-19T11:05:01.341Z,1000.51
2019-01-19T11:10:01.607Z,1000.54
2019-01-19T11:15:01.870Z,1000.41
2019-01-19T11:20:02.188Z,1000.38
2019-01-19T11:25:01.468Z,1000.32
2019-01-19T11:30:01.810Z,1000.26
2019-01-19T11:35:02.102Z,1000.14
2019-01-19T11:40:01.406Z,1000.03
2019-01-19T11:45:01.807Z,1000.03
2019-01-19T11:50:02.061Z,999.87
2019-01-19T11:55:01.341Z,999.9
2019-01-19T12:00:01.682Z,999.91
2019-01-19T12:05:01.932Z,999.85
2019-01-19T12:10:02.177Z,999.86
2019-01-19T12:15:01.463Z,999.73
2019-01-19T12:20:01.778Z,999.66
2019-01-19T12:25:02.028Z,999.57
2019-01-19T12:30:01.285Z,999.51
2019-01-19T12:35:01.557Z,999.46
2019-01-19T12:40:01.889Z,999.4
2019-01-19T12:45:02.169Z,999.32
2019-01-19T12:50:01.553Z,999.29
2019-01-19T12:55:01.870Z,999.29
2019-01-19T13:00:02.145Z,999.21
2019-01-19T13:05:01.417Z,999.05
2019-01-19T13:10:01.721Z,999.03
2019-01-19T13:15:02.054Z,999.04
2019-01-19T13:20:01.431Z,998.94
2019-01-19T13:25:01.705Z,998.84
2019-01-19T13:30:02.006Z,998.79
2019-01-19T13:35:01.329Z,998.67
2019-01-19T13:40:01.636Z,998.69
2019-01-19T13:45:01.931Z,998.6
2019-01-19T13:50:02.183Z,998.62
2019-01-19T13:55:01.531Z,998.62
2019-01-19T14:00:01.876Z,998.62
2019-01-19T14:05:02.120Z,998.6
2019-01-19T14:10:01.376Z,998.56
2019-01-19T14:15:01.661Z,998.55
2019-01-19T14:20:01.977Z,998.51
2019-01-19T14:25:02.211Z,998.53
2019-01-19T14:30:01.491Z,998.41
2019-01-19T14:35:01.798Z,998.43
2019-01-19T14:40:02.124Z,998.3
2019-01-19T14:45:01.407Z,998.24
2019-01-19T14:50:01.691Z,998.23
2019-01-19T14:55:02.441Z,998.15
2019-01-19T15:00:01.699Z,998.15
2019-01-19T15:05:01.994Z,998.14
2019-01-19T15:10:01.309Z,998.1
2019-01-19T15:15:01.620Z,998.14
2019-01-19T15:20:01.888Z,998.1
2019-01-19T15:25:02.141Z,998.12
2019-01-19T15:30:01.414Z,998.14
2019-01-19T15:35:01.802Z,998.08
2019-01-19T15:40:02.066Z,998.08
2019-01-19T15:45:01.490Z,998.05
2019-01-19T15:50:01.823Z,998.08
2019-01-19T15:55:02.092Z,998.12
2019-01-19T16:00:01.402Z,998.04
2019-01-19T16:05:01.834Z,998.06
2019-01-19T16:10:02.122Z,998.05
2019-01-19T16:15:01.464Z,998.04
2019-01-19T16:20:01.822Z,998.03
2019-01-19T16:25:02.101Z,997.97
2019-01-19T16:30:01.416Z,998.02
2019-01-19T16:35:01.745Z,997.98
2019-01-19T16:40:02.038Z,997.95
2019-01-19T16:45:01.330Z,997.91
2019-01-19T16:50:01.737Z,997.87
2019-01-19T16:55:02.017Z,997.9
2019-01-19T17:00:01.267Z,997.87
2019-01-19T17:05:03.296Z,997.85
2019-01-19T17:10:01.686Z,997.82
2019-01-19T17:15:01.945Z,997.88
2019-01-19T17:20:02.212Z,997.84
2019-01-19T17:25:01.495Z,997.8
2019-01-19T17:30:01.808Z,997.86
2019-01-19T17:35:02.113Z,997.83
2019-01-19T17:40:01.389Z,997.82
2019-01-19T17:45:01.673Z,997.84
2019-01-19T17:50:02.033Z,997.78
2019-01-19T17:55:01.300Z,997.77
2019-01-19T18:00:01.598Z,997.87
2019-01-19T18:05:01.868Z,997.81
2019-01-19T18:10:02.145Z,997.87
2019-01-19T18:15:01.437Z,997.85
2019-01-19T18:20:01.722Z,997.87
2019-01-19T18:25:01.986Z,997.89
2019-01-19T18:30:02.239Z,997.94
2019-01-19T18:35:01.539Z,997.91
2019-01-19T18:40:01.814Z,997.88
2019-01-19T18:45:02.112Z,997.89
2019-01-19T18:50:01.510Z,997.86
2019-01-19T18:55:01.793Z,997.79
2019-01-19T19:00:02.042Z,997.82
2019-01-19T19:05:01.352Z,997.82
2019-01-19T19:10:02.643Z,997.87
2019-01-19T19:15:01.915Z,997.88
2019-01-19T19:20:02.168Z,997.88
2019-01-19T19:25:01.470Z,997.83
2019-01-19T19:30:01.828Z,997.83
2019-01-19T19:35:02.120Z,997.79
2019-01-19T19:40:01.440Z,997.77
2019-01-19T19:45:01.734Z,997.86
2019-01-19T19:50:02.062Z,997.83
2019-01-19T19:55:01.345Z,997.77
2019-01-19T20:00:01.634Z,997.85
2019-01-19T20:05:01.876Z,997.93
2019-01-19T20:10:02.195Z,997.92
2019-01-19T20:15:01.461Z,997.93
2019-01-19T20:20:01.745Z,997.95
2019-01-19T20:25:02.022Z,997.92
2019-01-19T20:30:01.348Z,997.91
2019-01-19T20:35:01.665Z,997.88
2019-01-19T20:40:02.033Z,997.88
2019-01-19T20:45:01.358Z,997.96
2019-01-19T20:50:01.684Z,997.9
2019-01-19T20:55:01.962Z,997.9
2019-01-19T21:00:02.181Z,997.87
2019-01-19T21:05:01.492Z,997.86
2019-01-19T21:10:01.835Z,997.89
2019-01-19T21:15:01.314Z,997.88
2019-01-19T21:20:01.599Z,997.94
2019-01-19T21:25:01.822Z,997.9
2019-01-19T21:30:02.111Z,997.96
2019-01-19T21:35:01.559Z,997.96
2019-01-19T21:40:01.882Z,997.92
2019-01-19T21:45:02.191Z,997.95
2019-01-19T21:50:01.487Z,997.94
2019-01-19T21:55:01.772Z,997.91
2019-01-19T22:00:02.043Z,997.94
2019-01-19T22:05:01.408Z,997.95
2019-01-19T22:10:01.676Z,997.93
2019-01-19T22:15:01.966Z,997.95
2019-01-19T22:20:02.215Z,997.91
2019-01-19T22:25:01.482Z,997.91
2019-01-19T22:30:01.776Z,997.95
2019-01-19T22:35:02.067Z,997.95
2019-01-19T22:40:01.422Z,997.97
2019-01-19T22:45:01.722Z,998.04
2019-01-19T22:50:02.025Z,998.03
2019-01-19T22:55:01.429Z,997.96
2019-01-19T23:00:01.782Z,997.97
2019-01-19T23:05:02.161Z,997.94
2019-01-19T23:10:01.451Z,997.92
2019-01-19T23:15:01.704Z,997.94
2019-01-19T23:20:02.030Z,997.94
2019-01-19T23:25:01.290Z,997.88
2019-01-19T23:30:01.577Z,997.89
2019-01-19T23:35:01.881Z,997.92
2019-01-19T23:40:02.233Z,997.94
2019-01-19T23:45:01.460Z,997.89
2019-01-19T23:50:01.747Z,997.9
2019-01-19T23:55:02.010Z,997.88
